createdAt,value
2023-01-17T00:01:47.176Z,21.87
2023-01-17T00:05:07.657Z,23.80
2023-01-17T00:08:30.472Z,24.90
2023-01-17T00:11:32.420Z,22.05
2023-01-17T00:14:34.428Z,17.92
2023-01-17T00:17:36.448Z,20.45
2023-01-17T00:20:56.804Z,21.55
2023-01-17T00:24:17.306Z,19.57
2023-01-17T00:27:19.276Z,21.90
2023-01-17T00:30:21.320Z,18.42
2023-01-17T00:33:23.854Z,21.17
2023-01-17T00:36:25.754Z,17.50
2023-01-17T00:39:27.684Z,19.02
2023-01-17T00:42:29.647Z,20.45
2023-01-17T00:45:50.423Z,18.10
2023-01-17T00:49:11.537Z,16.90
2023-01-17T00:52:32.244Z,17.90
2023-01-17T00:55:52.517Z,14.30
2023-01-17T00:59:12.952Z,18.98
2023-01-17T01:02:33.556Z,16.30
2023-01-17T01:05:55.433Z,15.60
2023-01-17T01:09:15.901Z,14.88
2023-01-17T01:12:36.503Z,17.42
2023-01-17T01:15:56.969Z,16.70
2023-01-17T01:19:18.239Z,17.65
2023-01-17T01:22:38.660Z,16.02
2023-01-17T01:25:59.393Z,16.35
2023-01-17T01:29:19.721Z,17.47
2023-01-17T01:32:40.405Z,14.52
2023-01-17T01:35:43.179Z,14.25
2023-01-17T01:38:46.023Z,13.83
2023-01-17T01:41:48.046Z,11.90
2023-01-17T01:44:54.177Z,15.27
2023-01-17T01:48:03.935Z,12.13
2023-01-17T01:51:07.782Z,12.88
2023-01-17T01:54:17.986Z,15.05
2023-01-17T01:57:22.737Z,16.98
2023-01-17T02:00:27.153Z,13.40
2023-01-17T02:03:30.819Z,15.88
2023-01-17T02:06:35.334Z,16.75
2023-01-17T02:09:37.408Z,18.53
2023-01-17T02:12:39.611Z,15.15
2023-01-17T02:15:47.491Z,14.50
2023-01-17T02:18:55.273Z,18.88
2023-01-17T02:22:17.512Z,14.52
2023-01-17T02:25:28.365Z,20.45
2023-01-17T02:29:01.597Z,18.27
2023-01-17T02:32:11.086Z,11.63
2023-01-17T02:35:13.109Z,18.50
2023-01-17T02:38:47.492Z,21.63
2023-01-17T02:41:53.345Z,18.43
2023-01-17T02:44:55.388Z,17.88
2023-01-17T02:47:57.709Z,22.58
2023-01-17T02:50:59.685Z,23.45
2023-01-17T02:54:10.804Z,18.55
2023-01-17T02:57:48.152Z,21.13
2023-01-17T03:00:58.011Z,21.38
2023-01-17T03:04:04.867Z,22.17
2023-01-17T03:07:11.120Z,18.45
2023-01-17T03:10:14.758Z,16.48
2023-01-17T03:13:16.750Z,20.33
2023-01-17T03:16:19.849Z,21.55
2023-01-17T03:19:21.879Z,20.35
2023-01-17T03:22:23.892Z,19.15
2023-01-17T03:25:25.997Z,22.50
2023-01-17T03:28:29.432Z,22.67
2023-01-17T03:31:31.388Z,22.25
2023-01-17T03:34:33.458Z,20.83
2023-01-17T03:37:35.499Z,20.98
2023-01-17T03:40:37.491Z,19.77
2023-01-17T03:43:39.422Z,20.57
2023-01-17T03:46:41.493Z,20.95
2023-01-17T03:49:43.487Z,23.13
2023-01-17T03:52:45.521Z,19.95
2023-01-17T03:55:47.888Z,16.63
2023-01-17T03:58:49.982Z,19.13
2023-01-17T04:01:52.109Z,21.17
2023-01-17T04:04:54.216Z,13.53
2023-01-17T04:07:56.273Z,18.92
2023-01-17T04:10:58.303Z,16.70
2023-01-17T04:14:00.340Z,12.40
2023-01-17T04:17:04.158Z,13.65
2023-01-17T04:20:06.595Z,15.65
2023-01-17T04:23:08.625Z,16.52
2023-01-17T04:26:11.933Z,15.35
2023-01-17T04:29:13.959Z,15.77
2023-01-17T04:32:16.102Z,14.30
2023-01-17T04:35:18.073Z,9.93
2023-01-17T04:38:20.060Z,11.90
2023-01-17T04:41:22.059Z,12.05
2023-01-17T04:44:24.082Z,13.17
2023-01-17T04:47:26.061Z,11.05
2023-01-17T04:50:28.384Z,7.80
2023-01-17T04:53:30.441Z,11.63
2023-01-17T04:56:32.487Z,9.75
2023-01-17T04:59:34.516Z,7.90
2023-01-17T05:02:36.604Z,9.23
2023-01-17T05:05:38.649Z,5.43
2023-01-17T05:08:40.645Z,8.55
2023-01-17T05:11:42.663Z,5.70
2023-01-17T05:14:44.586Z,8.67
2023-01-17T05:17:46.604Z,6.35
2023-01-17T05:20:48.633Z,9.10
2023-01-17T05:23:50.965Z,11.45
2023-01-17T05:26:54.904Z,11.20
2023-01-17T05:29:56.975Z,10.32
2023-01-17T05:32:59.132Z,11.30
2023-01-17T05:36:01.138Z,10.83
2023-01-17T05:39:03.255Z,10.50
2023-01-17T05:42:05.352Z,10.68
2023-01-17T05:45:07.977Z,9.47
2023-01-17T05:48:10.034Z,10.95
2023-01-17T05:51:12.127Z,8.95
2023-01-17T05:54:14.172Z,11.00
2023-01-17T05:57:17.554Z,12.40
2023-01-17T06:00:20.121Z,9.88
2023-01-17T06:03:22.132Z,13.05
2023-01-17T06:06:24.250Z,10.57
2023-01-17T06:09:26.268Z,15.80
2023-01-17T06:12:28.501Z,17.08
2023-01-17T06:15:30.714Z,9.83
2023-01-17T06:18:32.770Z,13.02
2023-01-17T06:21:35.071Z,13.77
2023-01-17T06:24:37.310Z,15.20
2023-01-17T06:27:39.379Z,16.48
2023-01-17T06:30:41.919Z,16.00
2023-01-17T06:33:44.099Z,16.20
2023-01-17T06:36:47.111Z,14.93
2023-01-17T06:39:49.479Z,11.55
2023-01-17T06:42:51.826Z,11.05
2023-01-17T06:45:54.863Z,12.40
2023-01-17T06:48:56.920Z,13.43
2023-01-17T06:51:59.257Z,14.88
2023-01-17T06:55:01.655Z,17.65
2023-01-17T06:58:04.049Z,18.00
2023-01-17T07:01:10.236Z,14.30
2023-01-17T07:04:12.480Z,13.88
2023-01-17T07:07:14.609Z,11.80
2023-01-17T07:10:17.332Z,11.10
2023-01-17T07:13:19.421Z,10.50
2023-01-17T07:16:21.552Z,12.43
2023-01-17T07:19:24.212Z,6.47
2023-01-17T07:22:26.772Z,10.07
2023-01-17T07:25:28.886Z,7.47
2023-01-17T07:28:31.046Z,7.85
2023-01-17T07:31:35.598Z,7.82
2023-01-17T07:34:37.720Z,7.53
2023-01-17T07:37:39.846Z,7.03
2023-01-17T07:40:42.580Z,4.82
2023-01-17T07:43:44.875Z,4.93
2023-01-17T07:46:47.179Z,5.03
2023-01-17T07:49:51.529Z,3.53
2023-01-17T07:52:54.727Z,4.47
2023-01-17T07:56:00.568Z,3.00
2023-01-17T07:59:03.077Z,4.13
2023-01-17T08:02:05.377Z,4.68
2023-01-17T08:05:07.631Z,2.33
2023-01-17T08:08:10.173Z,3.17
2023-01-17T08:11:12.345Z,3.60
2023-01-17T08:14:14.484Z,2.20
2023-01-17T08:17:17.364Z,2.37
2023-01-17T08:20:20.113Z,2.58
2023-01-17T08:23:22.421Z,1.75
2023-01-17T08:26:24.539Z,2.13
2023-01-17T08:29:26.787Z,2.30
2023-01-17T08:32:28.934Z,1.83
2023-01-17T08:35:31.604Z,2.78
2023-01-17T08:38:33.778Z,2.20
2023-01-17T08:41:36.451Z,2.47
2023-01-17T08:44:40.677Z,2.70
2023-01-17T08:47:43.095Z,2.47
2023-01-17T08:50:46.417Z,1.98
2023-01-17T08:53:48.710Z,1.95
2023-01-17T08:56:53.010Z,2.53
2023-01-17T08:59:55.211Z,2.15
2023-01-17T09:02:57.274Z,2.40
2023-01-17T09:06:10.082Z,2.25
2023-01-17T09:09:12.484Z,2.10
2023-01-17T09:12:14.659Z,2.45
2023-01-17T09:15:20.279Z,2.10
2023-01-17T09:18:22.376Z,2.77
2023-01-17T09:21:25.443Z,2.15
2023-01-17T09:24:27.633Z,1.80
2023-01-17T09:27:29.764Z,2.53
2023-01-17T09:30:31.944Z,2.92
2023-01-17T09:33:34.215Z,2.53
2023-01-17T09:36:36.428Z,2.83
2023-01-17T09:39:38.532Z,2.57
2023-01-17T09:42:41.355Z,2.05
2023-01-17T09:45:43.620Z,2.80
2023-01-17T09:48:46.151Z,3.30
2023-01-17T09:51:48.386Z,1.50
2023-01-17T09:54:51.240Z,2.55
2023-01-17T09:58:03.557Z,2.60
2023-01-17T10:01:05.931Z,2.97
2023-01-17T10:04:23.282Z,2.80
2023-01-17T10:07:28.279Z,3.03
2023-01-17T10:10:30.320Z,3.05
2023-01-17T10:13:35.481Z,2.03
2023-01-17T10:16:40.771Z,3.10
2023-01-17T10:20:02.088Z,3.28
2023-01-17T10:23:14.672Z,2.58
2023-01-17T10:26:19.176Z,2.60
2023-01-17T10:29:22.923Z,2.45
2023-01-17T10:32:26.908Z,2.22
2023-01-17T10:35:31.708Z,1.90
2023-01-17T10:38:36.084Z,2.60
2023-01-17T10:41:41.115Z,2.65
2023-01-17T10:45:01.996Z,2.15
2023-01-17T10:48:17.063Z,1.67
2023-01-17T10:51:46.100Z,2.07
2023-01-17T10:55:07.759Z,2.15
2023-01-17T10:58:13.509Z,2.80
2023-01-17T11:01:20.252Z,2.38
2023-01-17T11:04:25.855Z,2.63
2023-01-17T11:07:29.070Z,2.03
2023-01-17T11:10:51.100Z,3.38
2023-01-17T11:13:55.684Z,2.13
2023-01-17T11:17:04.834Z,2.43
2023-01-17T11:20:08.188Z,2.47
2023-01-17T11:23:13.137Z,2.13
2023-01-17T11:26:41.457Z,1.92
2023-01-17T11:29:43.500Z,2.28
2023-01-17T11:33:18.191Z,2.57
2023-01-17T11:36:22.950Z,3.03
2023-01-17T11:39:27.646Z,2.67
2023-01-17T11:42:52.513Z,2.70
2023-01-17T11:46:02.403Z,2.58
2023-01-17T11:49:04.507Z,2.10
2023-01-17T11:52:18.777Z,1.80
2023-01-17T11:55:23.176Z,3.25
2023-01-17T11:58:26.598Z,2.38
2023-01-17T12:01:42.462Z,2.00
2023-01-17T12:04:53.720Z,2.20
2023-01-17T12:08:01.617Z,2.25
2023-01-17T12:11:06.681Z,2.20
2023-01-17T12:14:25.436Z,1.95
2023-01-17T12:17:35.193Z,2.10
2023-01-17T12:20:44.086Z,2.27
2023-01-17T12:23:49.313Z,1.95
2023-01-17T12:27:06.731Z,2.08
2023-01-17T12:30:27.568Z,2.67
2023-01-17T12:33:45.879Z,2.45
2023-01-17T12:36:57.244Z,2.70
2023-01-17T12:40:05.405Z,2.83
2023-01-17T12:43:16.391Z,2.58
2023-01-17T12:46:24.226Z,4.32
2023-01-17T12:49:45.826Z,4.40
2023-01-17T12:52:52.979Z,2.50
2023-01-17T12:56:03.933Z,3.10
2023-01-17T12:59:06.137Z,2.40
2023-01-17T13:02:26.833Z,3.53
2023-01-17T13:05:41.026Z,3.90
2023-01-17T13:08:46.608Z,2.23
2023-01-17T13:11:55.451Z,4.70
2023-01-17T13:14:58.368Z,5.00
2023-01-17T13:18:09.823Z,4.53
2023-01-17T13:21:27.233Z,5.30
2023-01-17T13:24:31.854Z,10.43
2023-01-17T13:28:02.325Z,5.57
2023-01-17T13:31:19.704Z,4.43
2023-01-17T13:34:24.836Z,3.72
2023-01-17T13:37:39.484Z,3.67
2023-01-17T13:40:41.555Z,5.55
2023-01-17T13:44:07.716Z,6.18
2023-01-17T13:47:11.489Z,6.65
2023-01-17T13:50:32.332Z,8.55
2023-01-17T13:53:34.401Z,7.83
2023-01-17T13:56:36.601Z,6.00
2023-01-17T13:59:38.702Z,5.88
2023-01-17T14:02:42.275Z,5.47
2023-01-17T14:05:47.492Z,4.20
2023-01-17T14:08:49.564Z,5.78
2023-01-17T14:12:24.937Z,8.70
2023-01-17T14:15:27.854Z,11.27
2023-01-17T14:18:37.665Z,10.10
2023-01-17T14:21:39.919Z,7.22
2023-01-17T14:25:00.491Z,7.40
2023-01-17T14:28:04.402Z,7.78
2023-01-17T14:31:09.474Z,6.28
2023-01-17T14:34:12.477Z,5.33
2023-01-17T14:37:17.539Z,5.70
2023-01-17T14:40:20.976Z,5.03
2023-01-17T14:43:24.774Z,8.70
2023-01-17T14:46:26.772Z,11.32
2023-01-17T14:49:29.128Z,7.28
2023-01-17T14:52:31.222Z,12.90
2023-01-17T14:55:33.215Z,14.63
2023-01-17T14:58:42.384Z,11.43
2023-01-17T15:01:52.523Z,17.40
2023-01-17T15:05:04.114Z,16.23
2023-01-17T15:08:10.649Z,8.80
2023-01-17T15:11:21.630Z,6.47
2023-01-17T15:14:27.309Z,6.53
2023-01-17T15:17:29.380Z,5.15
2023-01-17T15:20:31.578Z,8.15
2023-01-17T15:23:37.067Z,8.40
2023-01-17T15:26:40.837Z,12.53
2023-01-17T15:29:44.062Z,16.65
2023-01-17T15:32:51.354Z,12.07
2023-01-17T15:36:04.402Z,11.13
2023-01-17T15:39:15.043Z,8.27
2023-01-17T15:42:24.371Z,11.80
2023-01-17T15:45:30.310Z,13.10
2023-01-17T15:48:40.624Z,10.70
2023-01-17T15:51:47.207Z,15.45
2023-01-17T15:54:52.860Z,10.35
2023-01-17T15:57:54.905Z,10.43
2023-01-17T16:00:57.131Z,13.80
2023-01-17T16:03:59.274Z,13.63
2023-01-17T16:07:17.615Z,14.07
2023-01-17T16:10:21.057Z,14.35
2023-01-17T16:13:23.100Z,11.48
2023-01-17T16:16:26.580Z,10.25
2023-01-17T16:19:28.803Z,12.00
2023-01-17T16:22:30.838Z,10.25
2023-01-17T16:25:33.090Z,10.38
2023-01-17T16:28:35.085Z,7.87
2023-01-17T16:31:37.165Z,8.48
2023-01-17T16:34:39.179Z,7.03
2023-01-17T16:37:41.961Z,7.60
2023-01-17T16:40:44.811Z,7.90
2023-01-17T16:43:56.107Z,7.85
2023-01-17T16:47:01.444Z,11.18
2023-01-17T16:50:03.757Z,8.88
2023-01-17T16:53:05.801Z,9.60
2023-01-17T16:56:10.161Z,8.90
2023-01-17T16:59:12.188Z,10.37
2023-01-17T17:02:15.300Z,12.52
2023-01-17T17:05:17.896Z,10.07
2023-01-17T17:08:19.969Z,10.07
2023-01-17T17:11:23.243Z,6.63
2023-01-17T17:14:25.295Z,6.47
2023-01-17T17:17:27.297Z,5.88
2023-01-17T17:20:29.372Z,6.13
2023-01-17T17:23:31.476Z,7.10
2023-01-17T17:26:35.056Z,8.65
2023-01-17T17:29:37.109Z,7.23
2023-01-17T17:32:39.142Z,8.32
2023-01-17T17:35:41.188Z,6.82
2023-01-17T17:38:52.118Z,9.97
2023-01-17T17:41:54.083Z,10.48
2023-01-17T17:44:56.125Z,11.32
2023-01-17T17:47:58.112Z,14.05
2023-01-17T17:51:00.610Z,15.60
2023-01-17T17:54:04.210Z,12.20
2023-01-17T17:57:06.674Z,14.50
2023-01-17T18:00:08.933Z,12.90
2023-01-17T18:03:10.959Z,13.63
2023-01-17T18:06:13.326Z,12.95
2023-01-17T18:09:15.485Z,13.03
2023-01-17T18:12:17.511Z,11.32
2023-01-17T18:15:20.855Z,12.05
2023-01-17T18:18:22.879Z,12.07
2023-01-17T18:21:26.296Z,10.75
2023-01-17T18:24:28.508Z,10.05
2023-01-17T18:27:30.511Z,9.82
2023-01-17T18:30:38.510Z,8.53
2023-01-17T18:33:40.603Z,9.20
2023-01-17T18:36:43.286Z,8.90
2023-01-17T18:39:45.311Z,11.83
2023-01-17T18:42:48.694Z,10.60
2023-01-17T18:45:53.639Z,11.90
2023-01-17T18:48:56.073Z,10.05
2023-01-17T18:51:58.238Z,10.35
2023-01-17T18:55:00.287Z,9.38
2023-01-17T18:58:02.233Z,11.05
2023-01-17T19:01:07.709Z,10.37
2023-01-17T19:04:09.848Z,12.50
2023-01-17T19:07:12.742Z,10.30
2023-01-17T19:10:14.957Z,12.70
2023-01-17T19:13:16.933Z,11.45
2023-01-17T19:16:28.152Z,8.60
2023-01-17T19:19:30.244Z,10.57
2023-01-17T19:22:32.283Z,9.05
2023-01-17T19:25:34.987Z,9.45
2023-01-17T19:28:37.856Z,8.82
2023-01-17T19:31:42.887Z,7.97
2023-01-17T19:34:45.250Z,9.32
2023-01-17T19:37:48.039Z,9.05
2023-01-17T19:40:50.065Z,7.90
2023-01-17T19:43:55.853Z,7.20
2023-01-17T19:46:57.939Z,7.63
2023-01-17T19:49:59.987Z,6.90
2023-01-17T19:53:01.993Z,5.25
2023-01-17T19:56:04.863Z,6.82
2023-01-17T19:59:07.261Z,6.68
2023-01-17T20:02:09.618Z,6.57
2023-01-17T20:05:11.814Z,5.65
2023-01-17T20:08:14.288Z,6.15
2023-01-17T20:11:20.352Z,5.97
2023-01-17T20:14:22.717Z,4.95
2023-01-17T20:17:24.675Z,5.88
2023-01-17T20:20:26.677Z,4.90
2023-01-17T20:23:28.698Z,5.15
2023-01-17T20:26:34.996Z,5.40
2023-01-17T20:29:40.638Z,4.60
2023-01-17T20:32:42.645Z,5.57
2023-01-17T20:35:44.746Z,5.22
2023-01-17T20:38:46.869Z,4.30
2023-01-17T20:41:51.506Z,4.80
2023-01-17T20:44:53.540Z,4.53
2023-01-17T20:47:55.948Z,4.85
2023-01-17T20:51:10.700Z,4.53
2023-01-17T20:54:14.400Z,4.60
2023-01-17T20:57:16.389Z,4.75
2023-01-17T21:00:18.482Z,5.25
2023-01-17T21:03:20.579Z,5.23
2023-01-17T21:06:23.578Z,6.10
2023-01-17T21:09:25.598Z,7.70
2023-01-17T21:12:27.600Z,7.57
2023-01-17T21:15:29.570Z,8.10
2023-01-17T21:18:32.112Z,8.13
2023-01-17T21:21:34.193Z,9.18
2023-01-17T21:24:36.189Z,9.77
2023-01-17T21:27:38.202Z,6.40
2023-01-17T21:30:40.254Z,7.07
2023-01-17T21:33:42.302Z,7.17
2023-01-17T21:36:44.357Z,8.82
2023-01-17T21:39:51.488Z,8.38
2023-01-17T21:42:53.521Z,6.70
2023-01-17T21:45:55.560Z,6.95
2023-01-17T21:48:57.860Z,6.18
2023-01-17T21:51:59.887Z,6.25
2023-01-17T21:55:20.625Z,6.68
2023-01-17T21:58:41.026Z,6.75
2023-01-17T22:01:43.040Z,5.13
2023-01-17T22:04:45.131Z,6.10
2023-01-17T22:08:05.618Z,5.43
2023-01-17T22:11:11.890Z,5.22
2023-01-17T22:14:13.861Z,5.50
2023-01-17T22:17:15.865Z,6.32
2023-01-17T22:20:20.138Z,5.63
2023-01-17T22:23:23.185Z,5.25
2023-01-17T22:26:26.453Z,5.25
2023-01-17T22:29:28.501Z,5.05
2023-01-17T22:32:30.474Z,6.05
2023-01-17T22:35:32.797Z,6.73
2023-01-17T22:38:35.091Z,4.47
2023-01-17T22:41:38.086Z,5.38
2023-01-17T22:44:40.186Z,5.73
2023-01-17T22:47:42.263Z,4.90
2023-01-17T22:50:44.253Z,5.72
2023-01-17T22:53:47.966Z,4.65
2023-01-17T22:56:50.212Z,6.32
2023-01-17T22:59:52.245Z,5.88
2023-01-17T23:02:54.384Z,5.38
2023-01-17T23:05:56.463Z,5.50
2023-01-17T23:08:59.665Z,7.13
2023-01-17T23:12:01.621Z,4.63
2023-01-17T23:15:22.481Z,5.43
2023-01-17T23:18:42.972Z,3.95
2023-01-17T23:22:03.350Z,6.47
2023-01-17T23:25:12.897Z,5.00
2023-01-17T23:28:20.816Z,5.72
2023-01-17T23:31:23.484Z,3.85
2023-01-17T23:34:25.464Z,2.95
2023-01-17T23:37:48.129Z,4.67
2023-01-17T23:41:09.031Z,4.95
2023-01-17T23:44:11.048Z,4.13
2023-01-17T23:47:13.034Z,4.73
2023-01-17T23:50:15.146Z,3.67
2023-01-17T23:53:22.542Z,4.97
2023-01-17T23:56:24.926Z,3.63
2023-01-17T23:59:26.929Z,4.53
